Time;durP1;ratioP1;P1;durP2;ratioP2;P2;SDS_P1;SDS_P2;PMS_P1;PMS_P2;Temp;Humidity;BMP_temperature;BMP_pressure;BME280_temperature;BME280_humidity;BME280_pressure;Samples;Min_cycle;Max_cycle;Signal;HPM_P1;HPM_P2
2023/10/29 00:00:37;;;;;;;6.63;3.30;;;;;;;11.08;100.00;98892.69;5007377;28;20723;-75
2023/10/29 00:03:06;;;;;;;4.83;3.03;;;;;;;11.15;100.00;98884.63;5008342;28;20749;-75
2023/10/29 00:05:33;;;;;;;7.90;3.80;;;;;;;11.19;100.00;98888.13;5005492;28;20214;-77
2023/10/29 00:07:59;;;;;;;5.37;3.37;;;;;;;11.24;100.00;98884.53;5009670;28;20258;-76
2023/10/29 00:10:26;;;;;;;7.47;3.70;;;;;;;11.11;100.00;98888.22;4992291;28;20208;-78
2023/10/29 00:12:52;;;;;;;11.87;2.87;;;;;;;11.05;100.00;98885.66;5005718;28;20209;-80
2023/10/29 00:15:18;;;;;;;7.57;3.40;;;;;;;11.16;100.00;98893.47;5010844;28;20205;-80
2023/10/29 00:17:45;;;;;;;5.13;3.07;;;;;;;11.14;100.00;98890.84;5006964;28;20215;-80
2023/10/29 00:20:12;;;;;;;6.77;3.00;;;;;;;11.14;100.00;98887.31;5009494;28;20220;-80
2023/10/29 00:22:41;;;;;;;6.00;3.30;;;;;;;11.15;100.00;98881.13;5008288;28;20320;-80
2023/10/29 00:25:07;;;;;;;8.20;3.17;;;;;;;11.27;100.00;98886.28;5009282;28;20272;-79
2023/10/29 00:27:34;;;;;;;4.93;3.10;;;;;;;11.26;100.00;98881.88;4992323;28;20241;-80
2023/10/29 00:30:00;;;;;;;4.97;3.10;;;;;;;11.25;100.00;98880.13;5010563;28;20232;-80
2023/10/29 00:32:26;;;;;;;5.80;2.80;;;;;;;11.28;100.00;98874.78;5007932;28;20222;-79
2023/10/29 00:34:53;;;;;;;6.20;3.17;;;;;;;11.17;100.00;98860.78;4990313;28;21001;-82
2023/10/29 00:37:19;;;;;;;6.73;2.80;;;;;;;11.23;100.00;98852.75;4990094;28;20287;-82
2023/10/29 00:39:46;;;;;;;4.60;2.70;;;;;;;11.21;100.00;98849.25;5008962;28;20657;-80
2023/10/29 00:42:12;;;;;;;5.67;2.83;;;;;;;11.20;100.00;98871.31;5010436;28;20230;-80
2023/10/29 00:44:39;;;;;;;6.80;2.97;;;;;;;11.17;100.00;98868.72;5007894;28;20636;-81
2023/10/29 00:47:06;;;;;;;6.57;2.77;;;;;;;11.21;100.00;98881.06;5007991;28;20629;-81
2023/10/29 00:49:35;;;;;;;6.57;3.33;;;;;;;11.23;100.00;98885.44;5008674;28;20241;-81
2023/10/29 00:52:02;;;;;;;10.40;3.53;;;;;;;11.27;100.00;98883.63;5007863;28;20219;-80
2023/10/29 00:54:30;;;;;;;5.33;2.80;;;;;;;11.26;100.00;98885.41;5007980;28;20214;-78
2023/10/29 00:56:57;;;;;;;7.30;3.10;;;;;;;11.33;100.00;98888.84;5002995;28;20219;-78
2023/10/29 00:59:27;;;;;;;6.73;3.50;;;;;;;11.33;100.00;98880.88;5010086;28;20293;-78
2023/10/29 01:01:54;;;;;;;7.67;3.03;;;;;;;11.25;100.00;98883.66;5006921;28;20591;-76
2023/10/29 01:04:20;;;;;;;8.57;3.50;;;;;;;11.24;100.00;98887.19;5007574;28;20201;-76
2023/10/29 01:06:48;;;;;;;6.77;3.30;;;;;;;11.24;100.00;98876.59;4978618;28;20307;-75
2023/10/29 01:09:15;;;;;;;7.40;3.00;;;;;;;11.27;100.00;98870.38;5001081;28;20685;-74
2023/10/29 01:11:42;;;;;;;8.80;3.70;;;;;;;11.28;100.00;98867.69;5007192;28;20231;-75
2023/10/29 01:14:08;;;;;;;4.70;2.93;;;;;;;11.27;100.00;98862.41;5007195;28;20508;-75
2023/10/29 01:16:35;;;;;;;5.63;2.73;;;;;;;11.37;100.00;98857.84;5006021;28;20673;-75
2023/10/29 01:19:01;;;;;;;5.43;3.03;;;;;;;11.35;100.00;98862.31;5010078;28;20210;-75
2023/10/29 01:21:29;;;;;;;4.97;2.80;;;;;;;11.25;100.00;98851.84;4989623;28;20222;-76
2023/10/29 01:23:55;;;;;;;5.90;2.70;;;;;;;11.26;100.00;98852.72;5009530;28;20227;-78
2023/10/29 01:26:22;;;;;;;4.73;2.80;;;;;;;11.26;100.00;98855.38;5006410;28;20208;-78
2023/10/29 01:28:49;;;;;;;4.60;3.03;;;;;;;11.26;100.00;98843.00;5014975;28;20258;-78
2023/10/29 01:31:15;;;;;;;6.87;2.60;;;;;;;11.28;100.00;98822.66;5007554;28;20601;-78
2023/10/29 01:33:41;;;;;;;7.13;3.20;;;;;;;11.29;100.00;98795.25;5009134;28;20238;-77
2023/10/29 01:36:08;;;;;;;4.47;2.37;;;;;;;11.27;100.00;98786.44;5006100;28;20692;-78
2023/10/29 01:38:34;;;;;;;4.70;2.60;;;;;;;11.25;100.00;98790.91;4993495;28;20269;-78
2023/10/29 01:41:01;;;;;;;4.00;2.60;;;;;;;11.20;100.00;98784.75;5009022;28;20231;-77
2023/10/29 01:43:28;;;;;;;5.37;2.57;;;;;;;11.19;100.00;98783.00;5006432;28;20225;-78
2023/10/29 01:45:54;;;;;;;5.00;2.67;;;;;;;11.15;100.00;98797.19;5006918;28;20613;-77
2023/10/29 01:48:23;;;;;;;5.13;2.67;;;;;;;11.13;100.00;98806.94;5015110;28;20734;-77
2023/10/29 01:50:50;;;;;;;6.07;3.10;;;;;;;11.17;100.00;98810.44;5004162;28;20228;-75
2023/10/29 01:53:17;;;;;;;6.13;2.90;;;;;;;11.15;100.00;98807.81;4988699;28;20439;-75
2023/10/29 01:55:43;;;;;;;8.57;3.87;;;;;;;11.27;100.00;98786.44;5007721;28;20204;-75
2023/10/29 01:58:10;;;;;;;4.20;2.37;;;;;;;11.25;100.00;98777.66;5010057;28;20209;-76
2023/10/29 02:00:36;;;;;;;4.33;3.03;;;;;;;11.33;100.00;98766.91;5007242;28;20230;-75
2023/10/29 02:03:02;;;;;;;5.00;2.33;;;;;;;11.28;100.00;98744.91;5009099;28;20215;-74
2023/10/29 02:05:29;;;;;;;4.03;2.30;;;;;;;11.24;100.00;98737.91;4998001;28;20685;-76
2023/10/29 02:07:55;;;;;;;4.53;2.40;;;;;;;11.27;100.00;98735.22;5004663;28;20232;-75
2023/10/29 02:10:22;;;;;;;2.23;1.90;;;;;;;11.22;100.00;98745.91;5008029;28;20199;-77
2023/10/29 02:12:48;;;;;;;3.50;2.20;;;;;;;11.20;100.00;98760.91;4990437;28;20210;-77
2023/10/29 02:15:15;;;;;;;4.47;2.33;;;;;;;11.21;100.00;98759.16;5008800;28;20754;-77
2023/10/29 02:17:41;;;;;;;4.60;2.70;;;;;;;11.24;100.00;98794.44;5009862;28;20283;-79
2023/10/29 02:20:09;;;;;;;4.10;2.10;;;;;;;11.27;100.00;98847.41;5010984;28;20211;-79
2023/10/29 02:22:35;;;;;;;2.23;2.00;;;;;;;11.29;100.00;98832.34;5006801;28;20624;-82
2023/10/29 02:25:02;;;;;;;4.33;2.27;;;;;;;11.33;100.00;98830.53;5006509;28;20205;-77
2023/10/29 02:27:28;;;;;;;6.07;2.37;;;;;;;11.35;100.00;98833.16;5007622;28;20208;-79
2023/10/29 02:29:55;;;;;;;3.23;2.30;;;;;;;11.34;100.00;98826.97;5009268;28;20206;-79
2023/10/29 02:32:22;;;;;;;4.50;2.47;;;;;;;11.23;100.00;98832.44;5006971;28;20953;-79
2023/10/29 02:34:48;;;;;;;3.60;2.10;;;;;;;11.17;100.00;98829.84;5011500;28;20258;-76
2023/10/29 02:37:15;;;;;;;3.87;2.00;;;;;;;11.23;100.00;98824.50;5007444;28;20209;-77
2023/10/29 02:39:41;;;;;;;3.63;2.43;;;;;;;11.21;100.00;98815.69;5002182;28;20604;-78
2023/10/29 02:42:09;;;;;;;4.53;2.40;;;;;;;11.16;100.00;98801.59;5006788;28;20718;-78
2023/10/29 02:44:35;;;;;;;4.57;2.63;;;;;;;11.09;100.00;98789.34;5008514;28;20294;-78
2023/10/29 02:47:01;;;;;;;4.73;2.70;;;;;;;11.10;100.00;98771.69;5007435;28;20200;-77
2023/10/29 02:49:28;;;;;;;7.60;2.80;;;;;;;11.07;100.00;98764.66;4991045;28;20652;-77
2023/10/29 02:51:54;;;;;;;4.77;2.70;;;;;;;11.08;100.00;98769.06;5009657;28;20277;-77
2023/10/29 02:54:21;;;;;;;4.13;2.97;;;;;;;10.97;100.00;98779.81;4997282;28;20213;-77
2023/10/29 02:56:47;;;;;;;3.20;2.20;;;;;;;10.95;100.00;98789.56;5006752;28;20223;-75
2023/10/29 02:59:14;;;;;;;6.50;3.10;;;;;;;10.92;100.00;98794.03;5011042;28;20204;-75
2023/10/29 03:01:40;;;;;;;5.03;2.13;;;;;;;10.89;100.00;98784.34;5010372;28;20231;-76
2023/10/29 03:04:07;;;;;;;4.50;2.43;;;;;;;10.88;100.00;98779.06;5008032;28;21971;-75
2023/10/29 03:06:37;;;;;;;4.43;2.57;;;;;;;10.87;100.00;98779.97;5006842;28;20231;-74
2023/10/29 03:09:05;;;;;;;3.67;2.43;;;;;;;10.87;100.00;98780.84;5010947;28;20215;-75
2023/10/29 03:11:31;;;;;;;5.33;2.70;;;;;;;10.88;100.00;98792.31;5005336;28;20230;-75
2023/10/29 03:13:59;;;;;;;5.47;2.40;;;;;;;10.90;100.00;98809.94;5006564;28;20230;-76
2023/10/29 03:16:25;;;;;;;5.03;2.60;;;;;;;10.92;100.00;98809.91;5004013;28;20282;-75
2023/10/29 03:18:52;;;;;;;7.00;2.83;;;;;;;10.93;100.00;98795.78;5012484;28;20301;-74
2023/10/29 03:21:18;;;;;;;3.40;2.30;;;;;;;11.01;100.00;98793.88;5005215;28;20750;-76
2023/10/29 03:23:44;;;;;;;4.53;2.43;;;;;;;11.00;100.00;98776.25;5005547;28;20740;-74
2023/10/29 03:26:12;;;;;;;4.70;2.53;;;;;;;11.02;100.00;98773.56;5008344;28;20231;-74
2023/10/29 03:28:41;;;;;;;4.97;2.40;;;;;;;11.04;100.00;98788.53;5011827;28;20302;-74
2023/10/29 03:31:15;;;;;;;4.67;2.20;;;;;;;11.04;100.00;98782.38;5006545;28;20283;-75
2023/10/29 03:33:44;;;;;;;3.67;2.17;;;;;;;11.03;100.00;98783.28;4997200;28;20295;-75
2023/10/29 03:36:12;;;;;;;4.37;2.30;;;;;;;10.99;100.00;98780.66;5011482;28;20533;-74
2023/10/29 03:38:39;;;;;;;5.80;3.10;;;;;;;11.03;100.00;98792.09;5001525;28;20287;-76
2023/10/29 03:41:06;;;;;;;2.70;2.17;;;;;;;11.05;100.00;98785.00;5008022;28;20278;-74
2023/10/29 03:43:32;;;;;;;4.77;2.30;;;;;;;11.10;100.00;98784.94;5007883;28;20237;-75
2023/10/29 03:45:59;;;;;;;5.00;2.30;;;;;;;11.11;100.00;98786.69;5006434;28;20200;-75
2023/10/29 03:48:26;;;;;;;4.03;2.10;;;;;;;11.13;100.00;98777.81;5011526;28;20291;-74
2023/10/29 03:50:52;;;;;;;6.30;2.40;;;;;;;11.12;100.00;98764.59;5006874;28;20278;-76
2023/10/29 03:53:19;;;;;;;3.33;2.43;;;;;;;11.18;100.00;98786.56;4990418;28;20590;-75
2023/10/29 03:55:49;;;;;;;2.60;1.87;;;;;;;11.21;100.00;98775.06;5006321;28;20282;-74
2023/10/29 03:58:15;;;;;;;4.27;2.50;;;;;;;11.21;100.00;98780.38;5019912;28;20204;-74
2023/10/29 04:00:42;;;;;;;4.83;2.50;;;;;;;11.21;100.00;98777.72;5010068;28;20231;-74
2023/10/29 04:03:08;;;;;;;4.13;2.30;;;;;;;11.22;100.00;98780.34;5009800;28;20224;-74
2023/10/29 04:05:35;;;;;;;6.47;2.90;;;;;;;11.23;100.00;98778.56;5003444;28;20207;-75
2023/10/29 04:08:01;;;;;;;8.17;2.50;;;;;;;11.23;100.00;98779.44;5017573;28;20599;-74
2023/10/29 04:10:28;;;;;;;3.97;2.27;;;;;;;11.25;100.00;98779.41;5015212;28;20246;-74
2023/10/29 04:12:54;;;;;;;6.37;2.47;;;;;;;11.27;100.00;98781.16;5010075;28;20598;-74
2023/10/29 04:15:21;;;;;;;5.67;2.73;;;;;;;11.29;100.00;98784.66;5009510;28;20674;-74
2023/10/29 04:17:48;;;;;;;5.83;2.20;;;;;;;11.29;100.00;98781.13;5007989;28;20200;-74
2023/10/29 04:20:15;;;;;;;6.20;2.50;;;;;;;11.27;100.00;98782.91;5013943;28;20306;-74
2023/10/29 04:22:42;;;;;;;3.47;1.97;;;;;;;11.31;100.00;98792.56;4991608;28;20231;-74
2023/10/29 04:25:08;;;;;;;3.63;2.20;;;;;;;11.30;100.00;98794.34;5010794;28;20224;-74
2023/10/29 04:27:35;;;;;;;6.77;2.60;;;;;;;11.38;100.00;98785.41;5010046;28;20200;-74
2023/10/29 04:30:02;;;;;;;4.10;2.30;;;;;;;11.35;100.00;98786.31;5010941;28;20215;-73
2023/10/29 04:32:28;;;;;;;4.13;2.10;;;;;;;11.34;100.00;98789.88;4993975;28;20616;-74
2023/10/29 04:34:55;;;;;;;3.80;2.17;;;;;;;11.38;100.00;98788.91;5012116;28;20231;-74
2023/10/29 04:37:22;;;;;;;6.07;2.00;;;;;;;11.40;100.00;98787.13;5012911;28;20295;-74
2023/10/29 04:39:50;;;;;;;7.80;2.67;;;;;;;11.41;100.00;98793.31;5008606;28;20228;-73
2023/10/29 04:42:16;;;;;;;4.13;1.73;;;;;;;11.45;100.00;98798.53;5006147;28;20676;-73
2023/10/29 04:44:42;;;;;;;3.73;1.97;;;;;;;11.51;100.00;98801.06;5008984;28;20700;-72
2023/10/29 04:47:09;;;;;;;2.83;1.80;;;;;;;11.51;100.00;98798.41;5013758;28;20285;-73
2023/10/29 04:49:36;;;;;;;3.27;1.87;;;;;;;11.50;100.00;98794.03;5006696;28;20211;-74
2023/10/29 04:52:02;;;;;;;3.10;1.97;;;;;;;11.49;100.00;98794.91;5009035;28;20224;-73
2023/10/29 04:54:29;;;;;;;3.63;2.00;;;;;;;11.52;100.00;98807.25;5009158;28;20199;-73
2023/10/29 04:56:55;;;;;;;2.70;1.90;;;;;;;11.45;100.00;98808.25;5015059;28;20219;-74
2023/10/29 04:59:21;;;;;;;4.23;2.00;;;;;;;11.42;100.00;98814.47;4992094;28;20200;-73
2023/10/29 05:01:48;;;;;;;2.77;1.70;;;;;;;11.37;100.00;98805.72;5008054;28;20234;-75
2023/10/29 05:04:14;;;;;;;4.60;1.90;;;;;;;11.34;100.00;98795.19;5008040;28;20266;-74
2023/10/29 05:06:41;;;;;;;3.93;2.00;;;;;;;11.37;100.00;98799.56;5013689;28;20212;-74
2023/10/29 05:09:07;;;;;;;5.30;1.97;;;;;;;11.37;100.00;98799.56;5010487;28;20274;-74
2023/10/29 05:11:35;;;;;;;4.50;2.00;;;;;;;11.37;100.00;98808.38;5009267;28;20263;-73
2023/10/29 05:14:02;;;;;;;3.77;2.10;;;;;;;11.34;100.00;98802.25;5007022;28;20826;-73
2023/10/29 05:16:28;;;;;;;3.43;1.80;;;;;;;11.35;100.00;98799.56;4999774;28;20216;-74
2023/10/29 05:18:55;;;;;;;2.67;1.83;;;;;;;11.36;100.00;98796.03;5007910;28;20208;-73
2023/10/29 05:21:21;;;;;;;7.30;2.00;;;;;;;11.32;100.00;98791.66;5006031;28;20226;-74
2023/10/29 05:23:48;;;;;;;6.80;2.20;;;;;;;11.35;100.00;98794.28;4989401;28;20227;-74
2023/10/29 05:26:14;;;;;;;2.83;2.13;;;;;;;11.34;100.00;98805.78;5009657;28;20584;-74
2023/10/29 05:28:41;;;;;;;3.17;1.90;;;;;;;11.32;100.00;98802.28;5011810;28;20642;-73
2023/10/29 05:31:07;;;;;;;5.07;2.10;;;;;;;11.32;100.00;98804.94;5008690;28;20732;-72
2023/10/29 05:33:33;;;;;;;2.77;2.00;;;;;;;11.40;100.00;98840.13;5007982;28;20203;-73
2023/10/29 05:36:00;;;;;;;3.53;2.23;;;;;;;11.36;100.00;98821.66;5005903;28;20200;-72
2023/10/29 05:38:26;;;;;;;4.20;2.10;;;;;;;11.45;100.00;98837.41;5007490;28;20262;-72
2023/10/29 05:40:53;;;;;;;4.80;2.10;;;;;;;11.53;100.00;98843.47;5012292;28;20220;-73
2023/10/29 05:43:19;;;;;;;3.33;2.00;;;;;;;11.51;100.00;98835.53;5008465;28;20251;-73
2023/10/29 05:45:46;;;;;;;2.97;1.90;;;;;;;11.42;100.00;98830.38;5008209;28;20632;-74
2023/10/29 05:48:12;;;;;;;4.93;2.40;;;;;;;11.38;100.00;98827.81;4993336;28;20601;-73
2023/10/29 05:50:39;;;;;;;2.80;1.90;;;;;;;11.36;100.00;98819.00;5011347;28;20303;-74
2023/10/29 05:53:06;;;;;;;2.87;1.83;;;;;;;11.33;100.00;98824.34;5006461;28;20211;-73
2023/10/29 05:55:33;;;;;;;3.97;2.20;;;;;;;11.31;100.00;98824.38;5008235;28;20659;-73
2023/10/29 05:57:59;;;;;;;3.93;1.70;;;;;;;11.28;100.00;98829.72;5009527;28;20210;-73
2023/10/29 06:00:26;;;;;;;3.83;2.10;;;;;;;11.35;100.00;98843.75;4979320;28;20200;-73
2023/10/29 06:02:52;;;;;;;3.33;1.97;;;;;;;11.35;100.00;98835.81;5011737;28;20588;-73
2023/10/29 06:05:19;;;;;;;3.97;1.70;;;;;;;11.43;100.00;98841.88;5005639;28;20314;-73
2023/10/29 06:07:45;;;;;;;2.63;1.50;;;;;;;11.44;100.00;98836.53;5004764;28;20239;-73
2023/10/29 06:10:15;;;;;;;6.50;1.73;;;;;;;11.40;100.00;98833.97;5005616;28;20586;-74
2023/10/29 06:12:42;;;;;;;3.13;1.47;;;;;;;11.46;100.00;98832.09;5004452;28;20403;-73
2023/10/29 06:15:10;;;;;;;3.93;1.60;;;;;;;11.46;100.00;98807.34;5006201;28;20201;-73
2023/10/29 06:17:38;;;;;;;2.10;1.57;;;;;;;11.54;100.00;98800.16;5008895;28;20909;-74
2023/10/29 06:20:06;;;;;;;2.23;1.73;;;;;;;11.56;100.00;98779.78;4983472;28;20211;-74
2023/10/29 06:22:33;;;;;;;1.90;1.40;;;;;;;11.58;100.00;98746.16;4988227;28;20251;-73
2023/10/29 06:24:59;;;;;;;1.97;1.13;;;;;;;11.61;100.00;98732.88;5007660;28;20230;-73
2023/10/29 06:27:26;;;;;;;2.43;1.37;;;;;;;11.70;100.00;98747.75;5004110;28;20223;-73
2023/10/29 06:29:52;;;;;;;1.80;1.33;;;;;;;11.74;100.00;98768.00;4990267;28;20210;-72
2023/10/29 06:32:19;;;;;;;2.70;1.43;;;;;;;11.78;100.00;98767.09;5003468;28;20293;-72
2023/10/29 06:34:46;;;;;;;2.23;1.30;;;;;;;11.77;100.00;98758.22;4989194;28;20196;-73
2023/10/29 06:37:13;;;;;;;2.50;1.20;;;;;;;11.84;100.00;98783.75;5004119;28;20231;-75
2023/10/29 06:39:39;;;;;;;2.17;1.27;;;;;;;11.81;100.00;98754.66;5005692;28;20198;-73
2023/10/29 06:42:06;;;;;;;3.17;1.20;;;;;;;11.78;100.00;98751.19;5001998;28;20219;-72
2023/10/29 06:44:32;;;;;;;2.53;1.23;;;;;;;11.81;100.00;98770.56;5002602;28;20216;-73
2023/10/29 06:46:59;;;;;;;1.60;1.10;;;;;;;11.81;100.00;98789.13;5007521;28;20207;-73
2023/10/29 06:49:25;;;;;;;3.77;1.70;;;;;;;11.83;100.00;98800.59;5007074;28;20683;-74
2023/10/29 06:51:53;;;;;;;2.17;1.23;;;;;;;11.88;100.00;98782.81;5003974;28;20225;-73
2023/10/29 06:54:19;;;;;;;1.80;1.23;;;;;;;11.83;100.00;98782.00;5001228;28;20204;-74
2023/10/29 06:56:46;;;;;;;3.23;1.40;;;;;;;11.85;100.00;98782.84;5007995;28;20212;-74
2023/10/29 06:59:12;;;;;;;4.33;1.40;;;;;;;11.86;100.00;98776.66;5005709;28;20208;-75
2023/10/29 07:01:38;;;;;;;3.33;1.60;;;;;;;11.88;100.00;98774.84;5000813;28;20227;-74
2023/10/29 07:04:06;;;;;;;2.83;1.43;;;;;;;11.86;100.00;98781.09;5003754;28;20604;-75
2023/10/29 07:06:33;;;;;;;1.87;1.30;;;;;;;11.86;100.00;98771.34;5007264;28;20596;-74
2023/10/29 07:09:00;;;;;;;2.67;1.10;;;;;;;11.85;100.00;98790.81;5006420;28;20212;-74
2023/10/29 07:11:29;;;;;;;2.13;1.10;;;;;;;11.88;100.00;98787.22;4986548;28;20228;-73
2023/10/29 07:13:56;;;;;;;1.77;1.40;;;;;;;11.88;100.00;98782.81;5002093;28;20759;-73
2023/10/29 07:16:22;;;;;;;1.60;1.20;;;;;;;11.88;100.00;98779.28;5006055;28;20740;-75
2023/10/29 07:18:49;;;;;;;2.90;1.20;;;;;;;11.95;100.00;98788.88;4988507;28;20742;-73
2023/10/29 07:21:15;;;;;;;1.90;1.17;;;;;;;11.98;100.00;98801.19;5005604;28;20220;-73
2023/10/29 07:23:42;;;;;;;2.63;1.23;;;;;;;12.09;100.00;98789.53;5004402;28;20208;-72
2023/10/29 07:26:08;;;;;;;3.23;1.10;;;;;;;12.11;100.00;98785.06;5008395;28;20206;-72
2023/10/29 07:28:35;;;;;;;1.43;1.10;;;;;;;12.17;100.00;98792.03;5006970;28;20247;-73
2023/10/29 07:31:02;;;;;;;2.40;1.23;;;;;;;12.16;100.00;98785.84;5011515;28;20223;-74
2023/10/29 07:33:29;;;;;;;1.50;1.17;;;;;;;12.24;100.00;98804.28;5007570;28;20703;-73
2023/10/29 07:35:55;;;;;;;2.50;1.10;;;;;;;12.31;100.00;98787.31;5006895;28;20208;-73
2023/10/29 07:38:22;;;;;;;1.93;1.30;;;;;;;12.41;100.00;98798.66;5006384;28;20204;-73
2023/10/29 07:40:51;;;;;;;4.53;1.23;;;;;;;12.45;100.00;98779.09;4990523;28;20220;-73
2023/10/29 07:43:18;;;;;;;2.23;1.10;;;;;;;12.54;100.00;98779.78;5007579;28;20209;-72
2023/10/29 07:45:44;;;;;;;1.20;1.00;;;;;;;12.58;100.00;98777.06;5006980;28;20306;-72
2023/10/29 07:48:10;;;;;;;3.07;1.40;;;;;;;12.62;100.00;98773.44;5007545;28;20271;-73
2023/10/29 07:50:37;;;;;;;2.10;1.23;;;;;;;12.67;100.00;98775.09;5008979;28;20704;-72
2023/10/29 07:53:04;;;;;;;1.40;1.03;;;;;;;12.73;100.00;98756.34;5007558;28;20204;-72
2023/10/29 07:55:31;;;;;;;3.20;1.20;;;;;;;12.84;100.00;98751.72;5005765;28;20672;-73
2023/10/29 07:57:57;;;;;;;3.43;1.57;;;;;;;12.91;100.00;98720.56;5008901;28;20250;-73
2023/10/29 08:00:23;;;;;;;5.77;2.10;;;;;;;12.98;100.00;98732.78;4990505;28;20764;-73
2023/10/29 08:02:50;;;;;;;10.50;2.77;;;;;;;13.00;100.00;98756.66;5038203;22;20231;-67
2023/10/29 08:05:16;;;;;;;8.20;2.30;;;;;;;13.07;100.00;98747.63;5023323;28;20257;-68
2023/10/29 08:07:43;;;;;;;3.47;1.50;;;;;;;13.16;100.00;98761.59;5028666;28;20206;-68
2023/10/29 08:10:10;;;;;;;2.17;1.30;;;;;;;13.23;100.00;98769.47;5022308;28;20214;-68
2023/10/29 08:12:36;;;;;;;3.47;1.23;;;;;;;13.29;100.00;98772.00;5026877;28;20318;-68
2023/10/29 08:15:03;;;;;;;2.30;1.50;;;;;;;13.34;100.00;98770.09;5022443;28;20787;-68
2023/10/29 08:17:30;;;;;;;2.90;1.10;;;;;;;13.40;100.00;98746.00;5027556;28;20203;-69
2023/10/29 08:19:58;;;;;;;1.97;1.20;;;;;;;13.49;100.00;98783.00;5027698;28;20211;-68
2023/10/29 08:22:25;;;;;;;1.97;1.20;;;;;;;13.58;100.00;98801.41;5026300;28;20246;-68
2023/10/29 08:24:52;;;;;;;2.30;1.10;;;;;;;13.65;100.00;98802.16;5026765;28;20211;-69
2023/10/29 08:27:19;;;;;;;1.90;1.30;;;;;;;13.65;100.00;98813.66;5012114;28;20199;-68
2023/10/29 08:29:45;;;;;;;2.27;1.20;;;;;;;13.73;100.00;98814.34;5027861;28;20286;-68
2023/10/29 08:32:12;;;;;;;2.83;1.30;;;;;;;13.72;100.00;98825.91;5021534;28;20788;-68
2023/10/29 08:34:39;;;;;;;2.60;1.47;;;;;;;13.77;100.00;98821.34;5010894;28;20200;-68
2023/10/29 08:37:05;;;;;;;1.30;1.10;;;;;;;13.79;100.00;98823.97;5027482;28;20644;-68
2023/10/29 08:39:32;;;;;;;2.00;1.23;;;;;;;13.79;100.00;98827.50;5025563;28;20196;-68
2023/10/29 08:42:00;;;;;;;1.43;1.00;;;;;;;13.77;100.00;98837.28;5025336;28;20215;-69
2023/10/29 08:44:27;;;;;;;1.93;1.03;;;;;;;13.79;100.00;98846.13;5028626;28;20723;-69
2023/10/29 08:46:53;;;;;;;2.20;1.20;;;;;;;13.77;100.00;98847.94;5028022;28;20241;-70
2023/10/29 08:49:20;;;;;;;2.57;1.20;;;;;;;13.80;100.00;98862.97;5026656;28;20261;-68
2023/10/29 08:51:46;;;;;;;1.67;1.17;;;;;;;13.79;100.00;98864.75;5026242;28;20432;-69
2023/10/29 08:54:13;;;;;;;1.60;1.20;;;;;;;13.84;100.00;98872.59;5026784;28;20382;-68
2023/10/29 08:56:39;;;;;;;2.03;1.37;;;;;;;13.86;100.00;98872.56;5021779;28;20249;-68
2023/10/29 08:59:06;;;;;;;2.77;1.10;;;;;;;13.94;100.00;98873.25;5008796;28;20211;-69
2023/10/29 09:01:32;;;;;;;2.60;1.37;;;;;;;13.99;100.00;98869.56;5023215;28;20229;-68
2023/10/29 09:03:59;;;;;;;3.20;1.60;;;;;;;14.05;100.00;98876.56;5025061;28;20674;-68
2023/10/29 09:06:26;;;;;;;1.77;1.20;;;;;;;14.16;100.00;98885.13;5025446;28;20199;-68
2023/10/29 09:08:53;;;;;;;3.87;1.30;;;;;;;14.25;100.00;98876.91;5022594;28;20200;-68
2023/10/29 09:11:19;;;;;;;2.30;1.40;;;;;;;14.36;100.00;98868.63;5017042;28;20224;-70
2023/10/29 09:13:46;;;;;;;2.67;1.37;;;;;;;14.49;100.00;98869.22;5029613;28;20202;-68
2023/10/29 09:16:12;;;;;;;1.60;1.30;;;;;;;14.67;100.00;98861.59;5025067;28;20195;-68
2023/10/29 09:18:40;;;;;;;5.30;1.40;;;;;;;14.84;100.00;98861.16;5025952;28;20514;-68
2023/10/29 09:21:06;;;;;;;2.43;1.20;;;;;;;14.99;100.00;98868.69;5024204;28;20266;-68
2023/10/29 09:23:32;;;;;;;2.67;1.50;;;;;;;15.16;100.00;98872.66;5024353;28;20292;-69
2023/10/29 09:25:59;;;;;;;2.20;1.20;;;;;;;15.20;100.00;98864.50;5021861;28;20235;-68
2023/10/29 09:28:26;;;;;;;4.00;1.50;;;;;;;15.32;100.00;98860.63;5023173;28;21511;-68
2023/10/29 09:30:53;;;;;;;1.27;1.10;;;;;;;15.27;100.00;98857.22;5023331;28;20208;-68
2023/10/29 09:33:19;;;;;;;2.10;1.20;;;;;;;15.20;100.00;98845.84;5027575;28;20230;-69
2023/10/29 09:35:46;;;;;;;1.63;1.07;;;;;;;15.07;100.00;98838.25;5024590;28;20208;-68
2023/10/29 09:38:13;;;;;;;3.67;1.40;;;;;;;15.03;100.00;98832.16;5025871;28;20729;-68
2023/10/29 09:40:40;;;;;;;2.37;1.23;;;;;;;15.05;100.00;98832.97;5027714;28;20762;-69
2023/10/29 09:43:09;;;;;;;3.77;1.50;;;;;;;15.12;100.00;98852.31;5027304;28;20281;-68
2023/10/29 09:45:39;;;;;;;1.40;0.90;;;;;;;15.10;100.00;98867.50;5020398;28;20220;-68
2023/10/29 09:48:08;;;;;;;1.33;0.90;;;;;;;15.05;100.00;98881.84;5026149;28;20265;-68
2023/10/29 09:50:34;;;;;;;2.67;1.30;;;;;;;15.01;100.00;98892.63;5027396;28;20656;-68
2023/10/29 09:53:03;;;;;;;2.33;0.97;;;;;;;14.84;100.00;98884.25;5028642;28;20235;-68
2023/10/29 09:55:32;;;;;;;1.57;0.97;;;;;;;14.91;100.00;98892.03;5025280;28;20660;-68
2023/10/29 09:57:59;;;;;;;3.10;1.03;;;;;;;15.00;100.00;98877.56;5025069;28;20219;-69
2023/10/29 10:00:26;;;;;;;1.93;0.90;;;;;;;15.05;100.00;98867.63;5026775;28;20239;-68
2023/10/29 10:02:55;;;;;;;1.67;1.00;;;;;;;15.16;100.00;98869.97;5021956;28;20319;-69
2023/10/29 10:05:23;;;;;;;2.13;1.10;;;;;;;15.28;100.00;98862.50;5026012;28;20243;-68
2023/10/29 10:08:00;;;;;;;2.10;1.03;;;;;;;15.54;100.00;98876.81;5026413;28;20659;-68
2023/10/29 10:10:43;;;;;;;1.07;0.97;;;;;;;15.90;100.00;98880.16;5026068;28;20664;-68
2023/10/29 10:13:10;;;;;;;1.13;0.70;;;;;;;16.31;100.00;98884.13;5026798;28;20230;-68
2023/10/29 10:15:37;;;;;;;1.67;0.70;;;;;;;16.71;100.00;98877.44;5027213;28;20198;-69
2023/10/29 10:18:05;;;;;;;1.93;0.97;;;;;;;17.05;100.00;98871.75;5035976;28;20561;-68
2023/10/29 10:20:35;;;;;;;3.17;0.90;;;;;;;17.35;100.00;98862.56;5025769;28;20195;-69
2023/10/29 10:23:03;;;;;;;1.50;1.07;;;;;;;17.75;100.00;98872.63;5025419;28;20227;-68
2023/10/29 10:25:31;;;;;;;1.10;0.90;;;;;;;17.80;97.67;98883.13;5024461;28;20699;-68
2023/10/29 10:27:59;;;;;;;1.00;0.80;;;;;;;17.71;98.00;98880.84;5025479;28;20711;-68
2023/10/29 10:30:37;;;;;;;1.10;0.90;;;;;;;17.44;97.88;98877.38;5023899;28;20636;-68
2023/10/29 10:33:12;;;;;;;1.33;0.75;;;;;;;17.27;100.00;98890.56;5024084;28;20337;-69
2023/10/29 10:35:47;;;;;;;1.33;0.97;;;;;;;16.99;100.00;98894.25;5024683;28;20199;-68
2023/10/29 10:38:15;;;;;;;1.53;1.00;;;;;;;16.67;100.00;98894.53;5021200;28;20256;-68
2023/10/29 10:40:42;;;;;;;1.33;0.90;;;;;;;16.40;100.00;98885.63;5024421;28;20253;-68
2023/10/29 10:43:08;;;;;;;4.03;1.10;;;;;;;16.24;100.00;98883.47;5025191;28;20215;-69
2023/10/29 10:45:36;;;;;;;1.10;1.00;;;;;;;16.18;100.00;98875.69;5023138;28;20649;-68
2023/10/29 10:48:04;;;;;;;2.13;1.13;;;;;;;16.09;100.00;98862.63;5026350;28;20354;-67
2023/10/29 10:50:33;;;;;;;1.93;1.10;;;;;;;16.03;100.00;98880.66;5025730;28;20206;-68
2023/10/29 10:53:00;;;;;;;3.50;1.30;;;;;;;15.84;100.00;98873.22;5025030;28;20239;-69
2023/10/29 10:55:27;;;;;;;1.77;1.00;;;;;;;15.60;100.00;98868.66;5021656;28;20204;-68
2023/10/29 10:58:17;;;;;;;2.63;1.20;;;;;;;15.38;100.00;98860.44;5026206;28;20223;-68
2023/10/29 11:00:44;;;;;;;3.40;1.13;;;;;;;15.32;100.00;98861.50;5025797;28;20966;-68
2023/10/29 11:03:11;;;;;;;2.57;1.40;;;;;;;15.26;100.00;98855.47;5028939;28;20230;-70
2023/10/29 11:05:58;;;;;;;1.73;1.20;;;;;;;15.18;100.00;98858.34;5029036;28;20309;-71
2023/10/29 11:08:25;;;;;;;1.07;0.97;;;;;;;15.13;100.00;98867.41;5023839;28;20270;-68
2023/10/29 11:10:53;;;;;;;2.60;1.60;;;;;;;15.11;100.00;98879.91;5030476;28;20699;-66
2023/10/29 11:13:20;;;;;;;1.77;1.17;;;;;;;15.04;100.00;98882.75;5025308;28;20318;-68
2023/10/29 11:15:48;;;;;;;2.97;1.20;;;;;;;15.08;100.00;98874.66;5027714;28;20617;-67
2023/10/29 11:18:28;;;;;;;2.53;1.03;;;;;;;15.02;100.00;98855.28;5035782;28;20199;-68
2023/10/29 11:20:56;;;;;;;5.20;1.00;;;;;;;15.20;100.00;98851.16;5026917;28;20226;-68
2023/10/29 11:23:30;;;;;;;1.17;0.90;;;;;;;15.29;100.00;98855.38;5030780;28;20215;-68